Time;durP1;ratioP1;P1;durP2;ratioP2;P2;SDS_P1;SDS_P2;PMS_P1;PMS_P2;Temp;Humidity;BMP_temperature;BMP_pressure;BME280_temperature;BME280_humidity;BME280_pressure;Samples;Min_cycle;Max_cycle;Signal;HPM_P1;HPM_P2
2022/07/22 00:01:48;;;;;;;1999.90;999.90;;;16.50;99.90;;;;;;5095189;28;20402;-80
2022/07/22 00:04:14;;;;;;;1999.90;999.90;;;16.50;99.90;;;;;;5097077;28;20047;-81
2022/07/22 00:06:40;;;;;;;1999.90;999.90;;;16.50;99.90;;;;;;5092084;28;20071;-79
2022/07/22 00:09:05;;;;;;;1999.90;999.90;;;16.50;99.90;;;;;;5101677;28;20040;-80
2022/07/22 00:11:31;;;;;;;1999.90;999.90;;;16.50;99.90;;;;;;5102225;28;20467;-80
2022/07/22 00:13:57;;;;;;;1999.90;999.90;;;16.40;99.90;;;;;;5097016;28;20044;-80
2022/07/22 00:16:22;;;;;;;1999.90;999.90;;;16.40;99.90;;;;;;5098902;28;20491;-81
2022/07/22 00:18:48;;;;;;;1999.90;999.90;;;16.30;99.90;;;;;;5097559;28;20180;-80
2022/07/22 00:21:14;;;;;;;1999.90;999.90;;;16.30;99.90;;;;;;5100197;28;20487;-80
2022/07/22 00:23:39;;;;;;;1999.90;999.90;;;16.30;99.90;;;;;;5095266;28;20036;-80
2022/07/22 00:26:05;;;;;;;1999.90;999.90;;;16.30;99.90;;;;;;5094574;28;20032;-81
2022/07/22 00:28:30;;;;;;;1999.90;999.90;;;16.20;99.90;;;;;;5090168;28;20035;-82
2022/07/22 00:30:56;;;;;;;1999.90;999.90;;;16.20;99.90;;;;;;5088823;28;20036;-81
2022/07/22 00:33:22;;;;;;;1999.90;999.90;;;16.20;99.90;;;;;;5093244;28;20028;-81
2022/07/22 00:35:48;;;;;;;1999.90;999.90;;;16.00;99.90;;;;;;5089436;28;20044;-80
2022/07/22 00:38:13;;;;;;;1999.90;999.90;;;16.00;99.90;;;;;;5100452;28;20471;-81
2022/07/22 00:40:39;;;;;;;1999.90;999.90;;;16.00;99.90;;;;;;5106022;28;20031;-80
2022/07/22 00:43:05;;;;;;;1999.90;999.90;;;15.90;99.90;;;;;;5095609;28;20770;-81
2022/07/22 00:45:30;;;;;;;1999.90;999.90;;;15.90;99.90;;;;;;5101377;28;20031;-80
2022/07/22 00:47:56;;;;;;;1999.90;999.90;;;15.80;99.90;;;;;;5082014;28;20040;-80
2022/07/22 00:50:23;;;;;;;1999.90;999.90;;;15.70;99.90;;;;;;5095419;28;20046;-80
2022/07/22 00:52:49;;;;;;;1999.90;999.90;;;15.70;99.90;;;;;;5096198;28;20111;-82
2022/07/22 00:55:15;;;;;;;1999.90;999.90;;;15.60;99.90;;;;;;5098459;28;20039;-80
2022/07/22 00:57:41;;;;;;;1999.90;999.90;;;15.60;99.90;;;;;;5097050;28;20020;-80
2022/07/22 01:00:12;;;;;;;1999.90;999.90;;;15.60;99.90;;;;;;5094197;28;20036;-80
2022/07/22 01:02:38;;;;;;;1999.90;999.90;;;15.60;99.90;;;;;;5092728;28;20046;-83
2022/07/22 01:05:05;;;;;;;1999.90;999.90;;;15.50;99.90;;;;;;5093365;28;20036;-81
2022/07/22 01:07:31;;;;;;;1999.90;999.90;;;15.50;99.90;;;;;;5098324;28;20138;-80
2022/07/22 01:09:57;;;;;;;1999.90;999.90;;;15.50;99.90;;;;;;5107657;28;20036;-80
2022/07/22 01:12:23;;;;;;;1999.90;999.90;;;15.50;99.90;;;;;;5105611;28;20447;-80
2022/07/22 01:14:48;;;;;;;1999.90;999.90;;;15.50;99.90;;;;;;5096738;28;20108;-82
2022/07/22 01:17:14;;;;;;;1999.90;999.90;;;15.40;99.90;;;;;;5096572;28;20167;-80
2022/07/22 01:19:40;;;;;;;1999.90;999.90;;;15.30;99.90;;;;;;5104109;28;20032;-80
2022/07/22 01:22:07;;;;;;;1999.90;999.90;;;15.40;99.90;;;;;;5095901;28;20462;-80
2022/07/22 01:24:33;;;;;;;1999.90;999.90;;;15.40;99.90;;;;;;5098797;28;20096;-80
2022/07/22 01:26:59;;;;;;;1999.90;999.90;;;15.40;99.90;;;;;;5098904;28;20497;-85
2022/07/22 01:29:25;;;;;;;1999.90;999.90;;;15.40;99.90;;;;;;5100733;28;20028;-81
2022/07/22 01:31:50;;;;;;;1999.90;999.90;;;15.40;99.90;;;;;;5093967;28;20089;-81
2022/07/22 01:34:16;;;;;;;1999.90;999.90;;;15.30;99.90;;;;;;5097286;28;20558;-80
2022/07/22 01:36:42;;;;;;;1999.90;999.90;;;15.30;99.90;;;;;;5089160;28;20028;-80
2022/07/22 01:39:08;;;;;;;1999.90;999.90;;;15.30;99.90;;;;;;5101219;28;20031;-81
2022/07/22 01:41:33;;;;;;;1999.90;999.90;;;15.30;99.90;;;;;;5090719;28;20082;-81
2022/07/22 01:43:59;;;;;;;1999.90;999.90;;;15.30;99.90;;;;;;5099765;28;20090;-80
2022/07/22 01:46:25;;;;;;;1999.90;999.90;;;15.40;99.90;;;;;;5101708;28;20088;-81
2022/07/22 01:48:51;;;;;;;1999.90;999.90;;;15.30;99.90;;;;;;5105674;28;20395;-80
2022/07/22 01:51:18;;;;;;;1999.90;999.90;;;15.30;99.90;;;;;;5092535;28;20499;-84
2022/07/22 01:53:43;;;;;;;1999.90;999.90;;;15.10;99.90;;;;;;5097249;28;20023;-79
2022/07/22 01:56:09;;;;;;;1999.90;999.90;;;15.00;99.90;;;;;;5099411;28;20113;-80
2022/07/22 01:58:35;;;;;;;1999.90;999.90;;;14.90;99.90;;;;;;5104712;28;20495;-80
2022/07/22 02:01:01;;;;;;;1999.90;999.90;;;14.90;99.90;;;;;;5103040;28;20105;-80
2022/07/22 02:03:26;;;;;;;1999.90;999.90;;;14.80;99.90;;;;;;5080697;28;20032;-80
2022/07/22 02:05:52;;;;;;;1999.90;999.90;;;14.70;99.90;;;;;;5076221;28;20625;-80
2022/07/22 02:08:18;;;;;;;1999.90;999.90;;;14.80;99.90;;;;;;5096392;28;20103;-79
2022/07/22 02:10:44;;;;;;;1999.90;999.90;;;14.70;99.90;;;;;;5090966;28;20119;-80
2022/07/22 02:13:10;;;;;;;1999.90;999.90;;;14.70;99.90;;;;;;5102503;28;20035;-80
2022/07/22 02:15:36;;;;;;;1999.90;999.90;;;14.70;99.90;;;;;;5097381;28;20032;-81
2022/07/22 02:18:16;;;;;;;1999.90;999.90;;;14.80;99.90;;;;;;5098951;28;20028;-80
2022/07/22 02:20:42;;;;;;;;;;;14.80;99.90;;;;;;5103944;28;20054;-80
2022/07/22 02:23:10;;;;;;;1999.90;999.90;;;14.80;99.90;;;;;;5096232;28;20426;-80
2022/07/22 02:25:36;;;;;;;1999.90;999.90;;;14.80;99.90;;;;;;5097376;28;20050;-86
2022/07/22 02:28:02;;;;;;;1999.90;999.90;;;14.80;99.90;;;;;;5094570;28;20024;-80
2022/07/22 02:30:28;;;;;;;1999.90;999.90;;;14.80;99.90;;;;;;5074002;28;20024;-81
2022/07/22 02:32:53;;;;;;;1999.90;999.90;;;14.80;99.90;;;;;;5106829;28;20035;-80
2022/07/22 02:35:19;;;;;;;1999.90;999.90;;;14.80;99.90;;;;;;5091788;28;20495;-80
2022/07/22 02:37:45;;;;;;;1999.90;999.90;;;14.80;99.90;;;;;;5086163;28;20471;-81
2022/07/22 02:40:10;;;;;;;1999.90;999.90;;;14.70;99.90;;;;;;5105619;28;20032;-81
2022/07/22 02:42:36;;;;;;;1999.90;999.90;;;14.70;99.90;;;;;;5095080;28;20105;-80
2022/07/22 02:45:03;;;;;;;1999.90;999.90;;;14.60;99.90;;;;;;5091208;28;20041;-81
2022/07/22 02:47:28;;;;;;;1999.90;999.90;;;14.60;99.90;;;;;;5097249;28;20039;-80
2022/07/22 02:49:54;;;;;;;1999.90;999.90;;;14.40;99.90;;;;;;5098664;28;20015;-81
2022/07/22 02:52:20;;;;;;;1999.90;999.90;;;14.50;99.90;;;;;;5091817;28;20063;-80
2022/07/22 02:54:45;;;;;;;1999.90;999.90;;;14.50;99.90;;;;;;5084506;28;20484;-80
2022/07/22 02:57:11;;;;;;;1999.90;999.90;;;14.50;99.90;;;;;;5082428;28;20055;-79
2022/07/22 02:59:37;;;;;;;1999.90;999.90;;;14.40;99.90;;;;;;5080314;28;20040;-80
2022/07/22 03:02:03;;;;;;;1999.90;999.90;;;14.40;99.90;;;;;;5080304;28;20029;-81
2022/07/22 03:04:29;;;;;;;1999.90;999.90;;;14.30;99.90;;;;;;5083767;28;20021;-79
2022/07/22 03:06:54;;;;;;;1999.90;999.90;;;14.30;99.90;;;;;;5082297;28;20085;-79
2022/07/22 03:09:20;;;;;;;1999.90;999.90;;;14.20;99.90;;;;;;5093930;28;20453;-81
2022/07/22 03:11:46;;;;;;;1999.90;999.90;;;14.20;99.90;;;;;;5093110;28;20076;-79
2022/07/22 03:14:12;;;;;;;1999.90;999.90;;;14.20;99.90;;;;;;5093587;28;20039;-79
2022/07/22 03:16:37;;;;;;;1999.90;999.90;;;14.10;99.90;;;;;;5098307;28;20556;-80
2022/07/22 03:19:03;;;;;;;1999.90;999.90;;;14.10;99.90;;;;;;5099040;28;20053;-80
2022/07/22 03:21:29;;;;;;;1999.90;999.90;;;14.20;99.90;;;;;;5094669;28;20106;-80
2022/07/22 03:23:55;;;;;;;1999.90;999.90;;;14.20;99.90;;;;;;5087450;28;20031;-86
2022/07/22 03:26:21;;;;;;;1999.90;999.90;;;14.20;99.90;;;;;;5096847;28;20051;-79
2022/07/22 03:28:47;;;;;;;1999.90;999.90;;;14.10;99.90;;;;;;5096137;28;20115;-80
2022/07/22 03:31:13;;;;;;;1999.90;999.90;;;14.10;99.90;;;;;;5088454;28;20115;-79
2022/07/22 03:33:39;;;;;;;1999.90;999.90;;;14.00;99.90;;;;;;5083362;28;20072;-80
2022/07/22 03:36:07;;;;;;;1999.90;999.90;;;14.00;99.90;;;;;;5092420;28;20540;-82
2022/07/22 03:38:34;;;;;;;1999.90;999.90;;;14.10;99.90;;;;;;5095839;28;20552;-80
2022/07/22 03:41:00;;;;;;;1999.90;999.90;;;14.10;99.90;;;;;;5097357;28;20036;-81
2022/07/22 03:43:26;;;;;;;1999.90;999.90;;;14.20;99.90;;;;;;5095500;28;20538;-81
2022/07/22 03:45:51;;;;;;;1999.90;999.90;;;14.20;99.90;;;;;;5100533;28;20441;-82
2022/07/22 03:48:17;;;;;;;1999.90;999.90;;;14.20;99.90;;;;;;5090708;28;20027;-80
2022/07/22 03:50:43;;;;;;;1999.90;999.90;;;14.30;99.90;;;;;;5100147;28;20024;-81
2022/07/22 03:53:09;;;;;;;1999.90;999.90;;;14.30;99.90;;;;;;5101266;28;20348;-80
2022/07/22 03:55:34;;;;;;;1999.90;999.90;;;14.30;99.90;;;;;;5090010;28;20102;-80
2022/07/22 03:58:00;;;;;;;1999.90;999.90;;;14.40;99.90;;;;;;5067250;28;20063;-80
2022/07/22 04:00:26;;;;;;;1999.90;999.90;;;14.40;99.90;;;;;;5088584;28;20107;-81
2022/07/22 04:02:51;;;;;;;1999.90;999.90;;;14.40;99.90;;;;;;5097472;28;20058;-80
2022/07/22 04:05:17;;;;;;;1999.90;999.90;;;14.40;99.90;;;;;;5090842;28;20499;-79
2022/07/22 04:07:43;;;;;;;1999.90;999.90;;;14.30;99.90;;;;;;5094417;28;20540;-79
2022/07/22 04:10:09;;;;;;;1999.90;999.90;;;14.40;99.90;;;;;;5085565;28;20028;-79
2022/07/22 04:12:36;;;;;;;1999.90;999.90;;;14.40;99.90;;;;;;5094547;28;20048;-83
2022/07/22 04:15:04;;;;;;;1999.90;999.90;;;14.50;99.90;;;;;;5089718;28;20625;-80
2022/07/22 04:17:30;;;;;;;1999.90;999.90;;;14.50;99.90;;;;;;5091262;28;20111;-80
2022/07/22 04:19:57;;;;;;;1999.90;999.90;;;14.50;99.90;;;;;;5081362;28;20106;-79
2022/07/22 04:22:23;;;;;;;1999.90;999.90;;;14.60;99.90;;;;;;5099742;28;20434;-80
2022/07/22 04:24:48;;;;;;;1999.90;999.90;;;14.60;99.90;;;;;;5088876;28;20443;-79
2022/07/22 04:27:14;;;;;;;1999.90;999.90;;;14.80;99.90;;;;;;5097767;28;20043;-80
2022/07/22 04:29:40;;;;;;;1999.90;999.90;;;14.90;99.90;;;;;;5090986;28;20031;-80
2022/07/22 04:32:05;;;;;;;1999.90;999.90;;;15.00;99.90;;;;;;5088020;28;20063;-79
2022/07/22 04:34:31;;;;;;;1999.90;999.90;;;15.00;99.90;;;;;;5086724;28;20036;-79
2022/07/22 04:36:57;;;;;;;1999.90;999.90;;;15.10;99.90;;;;;;5102294;28;20024;-79
2022/07/22 04:39:23;;;;;;;1999.90;999.90;;;15.20;99.90;;;;;;5094001;28;20767;-80
2022/07/22 04:41:48;;;;;;;1999.90;999.90;;;15.20;99.90;;;;;;5112656;28;20382;-84
2022/07/22 04:44:14;;;;;;;1999.90;999.90;;;15.30;99.90;;;;;;5103136;28;20454;-82
2022/07/22 04:46:40;;;;;;;1999.90;999.90;;;15.40;99.90;;;;;;5081297;28;20264;-82
2022/07/22 04:49:05;;;;;;;1999.90;999.90;;;15.50;99.90;;;;;;5093254;28;20031;-82
2022/07/22 04:51:31;;;;;;;1999.90;999.90;;;15.70;99.90;;;;;;5089345;28;20028;-82
2022/07/22 04:53:57;;;;;;;1999.90;999.90;;;15.80;99.90;;;;;;5094850;28;20066;-80
2022/07/22 04:56:22;;;;;;;1999.90;999.90;;;15.80;99.90;;;;;;5059274;28;20033;-82
2022/07/22 04:58:48;;;;;;;1999.90;999.90;;;15.80;99.90;;;;;;5093332;28;20145;-82
2022/07/22 05:01:14;;;;;;;1999.90;999.90;;;16.10;99.90;;;;;;5072559;28;20039;-82
2022/07/22 05:03:41;;;;;;;1999.90;999.90;;;16.10;99.90;;;;;;5094032;28;20059;-83
2022/07/22 05:06:07;;;;;;;1999.90;999.90;;;16.30;99.90;;;;;;5073563;28;20432;-83
2022/07/22 05:08:33;;;;;;;1999.90;999.90;;;16.40;99.90;;;;;;5099240;28;20024;-83
2022/07/22 05:10:58;;;;;;;1999.90;999.90;;;16.60;99.90;;;;;;5097910;28;20021;-83
2022/07/22 05:13:24;;;;;;;1999.90;999.90;;;16.70;99.90;;;;;;5096542;28;20077;-82
2022/07/22 05:15:50;;;;;;;1999.90;999.90;;;16.90;99.90;;;;;;5097829;28;20048;-82
2022/07/22 05:18:16;;;;;;;1999.90;999.90;;;17.00;99.90;;;;;;5089507;28;20460;-82
2022/07/22 05:20:42;;;;;;;1999.90;999.90;;;17.20;99.90;;;;;;5090047;28;20028;-80
2022/07/22 05:23:08;;;;;;;1999.90;999.90;;;17.30;99.90;;;;;;5065622;28;20830;-82
2022/07/22 05:25:34;;;;;;;1999.90;999.90;;;17.50;99.90;;;;;;5055789;28;20059;-78
2022/07/22 05:27:59;;;;;;;1999.90;999.90;;;17.60;99.90;;;;;;5074355;28;20053;-82
2022/07/22 05:30:25;;;;;;;1999.90;999.90;;;17.60;99.90;;;;;;5084400;28;20032;-82
2022/07/22 05:32:52;;;;;;;1999.90;999.90;;;17.70;99.90;;;;;;5091137;28;20599;-82
2022/07/22 05:35:18;;;;;;;1999.90;999.90;;;17.70;99.90;;;;;;5101083;28;20028;-84
2022/07/22 05:37:44;;;;;;;1999.90;999.90;;;17.80;99.90;;;;;;5091709;28;20498;-85
2022/07/22 05:40:10;;;;;;;1999.90;999.90;;;17.90;99.90;;;;;;5073834;28;20028;-83
2022/07/22 05:42:36;;;;;;;1999.90;999.90;;;17.80;99.90;;;;;;5079564;28;20038;-83
2022/07/22 05:45:02;;;;;;;1999.90;999.90;;;18.00;99.90;;;;;;5091867;28;20471;-83
2022/07/22 05:47:27;;;;;;;1999.90;999.90;;;18.10;99.90;;;;;;5093374;28;20135;-82
2022/07/22 05:49:53;;;;;;;1999.90;999.90;;;18.20;99.90;;;;;;5097339;28;20035;-84
2022/07/22 05:52:19;;;;;;;1999.90;999.90;;;18.20;99.90;;;;;;5094054;28;20028;-82
2022/07/22 05:54:45;;;;;;;1999.90;999.90;;;18.30;99.90;;;;;;5090963;28;20038;-84
2022/07/22 05:57:10;;;;;;;1999.90;999.90;;;18.30;99.90;;;;;;5092856;28;20026;-83
2022/07/22 05:59:36;;;;;;;1999.90;999.90;;;18.40;99.90;;;;;;5094629;28;20032;-83
2022/07/22 06:02:03;;;;;;;1999.90;999.90;;;18.50;99.90;;;;;;5094582;28;20024;-84
2022/07/22 06:04:28;;;;;;;1999.90;999.90;;;18.60;99.90;;;;;;5094307;28;20050;-83
2022/07/22 06:06:54;;;;;;;1999.90;999.90;;;18.70;99.90;;;;;;5079584;28;20097;-83
2022/07/22 06:09:20;;;;;;;1999.90;999.90;;;18.80;99.90;;;;;;5098124;28;20356;-83
2022/07/22 06:11:46;;;;;;;1999.90;999.90;;;18.90;99.90;;;;;;5097206;28;20070;-84
2022/07/22 06:14:12;;;;;;;1999.90;999.90;;;19.00;99.90;;;;;;5110125;28;20099;-83
2022/07/22 06:16:38;;;;;;;1999.90;999.90;;;19.10;99.90;;;;;;5112431;28;20403;-84
2022/07/22 06:19:03;;;;;;;1999.90;999.90;;;19.20;99.90;;;;;;5093817;28;20024;-84
2022/07/22 06:21:29;;;;;;;1999.90;999.90;;;19.20;99.90;;;;;;5114876;28;20028;-83
2022/07/22 06:23:55;;;;;;;1999.90;999.90;;;19.30;99.90;;;;;;5126235;28;20083;-84
2022/07/22 06:26:20;;;;;;;1999.90;999.90;;;19.30;99.90;;;;;;5115588;28;20088;-82
2022/07/22 06:28:46;;;;;;;1999.90;999.90;;;19.40;99.90;;;;;;5108596;28;20055;-82
2022/07/22 06:31:12;;;;;;;1999.90;999.90;;;19.50;99.90;;;;;;5089343;28;20094;-84
2022/07/22 06:33:38;;;;;;;1999.90;999.90;;;19.50;99.10;;;;;;5102513;28;20076;-83
2022/07/22 06:36:04;;;;;;;1999.90;999.90;;;19.60;99.90;;;;;;5098621;28;20046;-83
2022/07/22 06:38:30;;;;;;;1999.90;999.90;;;19.60;99.60;;;;;;5092350;28;20028;-83
2022/07/22 06:40:56;;;;;;;1999.90;999.90;;;19.70;99.90;;;;;;5091842;28;20036;-84
2022/07/22 06:43:22;;;;;;;1999.90;999.90;;;19.90;99.80;;;;;;5086427;28;20180;-85
2022/07/22 06:45:47;;;;;;;1999.90;999.90;;;20.00;98.70;;;;;;5078030;28;20047;-81
2022/07/22 06:48:13;;;;;;;1999.90;999.90;;;20.10;99.80;;;;;;5097303;28;20383;-81
2022/07/22 06:50:39;;;;;;;1999.90;999.90;;;20.20;98.90;;;;;;5089375;28;20570;-82
2022/07/22 06:53:05;;;;;;;1999.90;999.90;;;20.30;98.00;;;;;;5093143;28;20159;-82
2022/07/22 06:55:30;;;;;;;1999.90;999.90;;;20.40;95.10;;;;;;5088965;28;20058;-81
2022/07/22 06:57:56;;;;;;;1999.90;999.90;;;20.50;99.10;;;;;;5089443;28;20479;-82
2022/07/22 07:00:22;;;;;;;1999.90;999.90;;;20.60;96.60;;;;;;5089456;28;20550;-84
2022/07/22 07:02:47;;;;;;;1999.90;999.90;;;20.70;94.60;;;;;;5072283;28;20744;-81
2022/07/22 07:05:14;;;;;;;1999.90;999.90;;;20.70;95.20;;;;;;5083233;28;20118;-80
2022/07/22 07:07:39;;;;;;;1999.90;999.90;;;20.80;94.20;;;;;;5096127;28;20166;-80
2022/07/22 07:10:05;;;;;;;1999.90;999.90;;;20.90;95.00;;;;;;5072820;28;20535;-80
2022/07/22 07:12:31;;;;;;;1999.90;999.90;;;20.90;93.80;;;;;;5097711;28;20483;-83
2022/07/22 07:14:57;;;;;;;1999.90;999.90;;;21.00;94.20;;;;;;5070468;28;20048;-81
2022/07/22 07:17:24;;;;;;;1999.90;999.90;;;21.10;95.80;;;;;;5069646;28;20380;-84
2022/07/22 07:19:49;;;;;;;715.03;221.30;;;21.30;91.90;;;;;;5066744;28;20028;-81
2022/07/22 07:22:15;;;;;;;1158.40;477.30;;;21.40;93.10;;;;;;5073524;28;20035;-82
2022/07/22 07:24:42;;;;;;;1999.90;999.90;;;21.50;91.00;;;;;;5075315;28;20063;-84
2022/07/22 07:27:07;;;;;;;1999.90;999.90;;;21.50;92.70;;;;;;5070403;28;20123;-83
2022/07/22 07:29:33;;;;;;;577.72;175.27;;;21.60;91.20;;;;;;5069558;28;20147;-81
2022/07/22 07:31:59;;;;;;;1999.90;999.90;;;21.60;90.30;;;;;;5072415;28;20111;-82
2022/07/22 07:34:24;;;;;;;1999.90;999.90;;;21.60;92.00;;;;;;5072957;28;20031;-83
2022/07/22 07:36:50;;;;;;;1999.90;835.97;;;21.70;90.30;;;;;;5079612;28;20032;-84
2022/07/22 07:39:16;;;;;;;1999.90;999.90;;;21.90;88.90;;;;;;5077379;28;20028;-84
2022/07/22 07:41:41;;;;;;;1999.90;999.90;;;22.10;92.70;;;;;;5075380;28;20115;-84
2022/07/22 07:44:07;;;;;;;1999.90;999.90;;;22.20;86.30;;;;;;5073998;28;20249;-84
2022/07/22 07:46:33;;;;;;;1999.90;999.90;;;22.40;84.80;;;;;;5066691;28;20031;-83
2022/07/22 07:48:59;;;;;;;1999.90;999.90;;;22.60;87.00;;;;;;5072644;28;20053;-82
2022/07/22 07:51:24;;;;;;;1999.90;999.90;;;22.70;86.20;;;;;;5067538;28;20024;-83
2022/07/22 07:53:50;;;;;;;1999.90;999.90;;;22.80;83.20;;;;;;5072275;28;20410;-83
2022/07/22 07:56:16;;;;;;;1999.90;999.90;;;22.90;83.50;;;;;;5057376;28;20079;-82
2022/07/22 07:58:42;;;;;;;1999.90;999.90;;;23.00;80.30;;;;;;5071776;28;20032;-84
2022/07/22 08:01:07;;;;;;;1048.53;199.05;;;22.90;80.50;;;;;;5063297;28;20460;-81
2022/07/22 08:03:33;;;;;;;1999.90;999.90;;;23.10;82.40;;;;;;5065155;28;20365;-81
2022/07/22 08:06:00;;;;;;;1999.90;999.90;;;23.50;79.40;;;;;;5067607;28;20313;-83
2022/07/22 08:08:26;;;;;;;1999.90;999.90;;;23.60;72.00;;;;;;5078423;28;20494;-83
2022/07/22 08:10:53;;;;;;;1999.90;999.90;;;23.50;71.90;;;;;;5076965;28;20035;-84
2022/07/22 08:13:18;;;;;;;1999.90;999.90;;;23.50;72.80;;;;;;5071429;28;20028;-84
2022/07/22 08:15:44;;;;;;;1999.90;999.90;;;23.60;71.00;;;;;;5065594;28;20055;-81
2022/07/22 08:18:10;;;;;;;1999.90;999.90;;;23.80;71.20;;;;;;5071389;28;20056;-82
2022/07/22 08:20:36;;;;;;;1999.90;999.90;;;23.90;70.10;;;;;;5072578;28;20101;-83
2022/07/22 08:23:01;;;;;;;1999.90;999.90;;;24.00;71.90;;;;;;5068953;28;20036;-84
2022/07/22 08:25:27;;;;;;;1999.90;999.90;;;24.20;70.00;;;;;;5069968;28;20440;-83
2022/07/22 08:27:53;;;;;;;1999.90;999.90;;;24.40;71.40;;;;;;5070367;28;20494;-83
2022/07/22 08:30:19;;;;;;;1999.90;999.90;;;24.40;63.40;;;;;;5062142;28;20112;-83
2022/07/22 08:32:46;;;;;;;1999.90;999.90;;;24.40;66.10;;;;;;5067404;28;20157;-93
2022/07/22 08:35:12;;;;;;;1999.90;999.90;;;24.50;69.40;;;;;;5080160;28;20153;-92
2022/07/22 08:37:38;;;;;;;1999.90;999.90;;;24.80;63.80;;;;;;5070044;28;20106;-91
2022/07/22 08:40:06;;;;;;;1999.90;999.90;;;24.80;62.10;;;;;;5072501;28;20036;-90
2022/07/22 08:42:33;;;;;;;1999.90;999.90;;;24.80;62.20;;;;;;5077406;28;20024;-92
2022/07/22 08:44:58;;;;;;;1999.90;999.90;;;24.90;63.90;;;;;;5071559;28;20036;-92
2022/07/22 08:47:24;;;;;;;1999.90;999.90;;;25.20;63.60;;;;;;5071072;28;20415;-92
2022/07/22 08:49:50;;;;;;;1999.90;999.90;;;25.30;63.30;;;;;;5071537;28;20024;-91
2022/07/22 08:52:16;;;;;;;1999.90;999.90;;;25.60;62.30;;;;;;5074838;28;20483;-94
2022/07/22 08:54:42;;;;;;;1999.90;999.90;;;25.60;61.60;;;;;;5074437;28;20041;-92
2022/07/22 08:57:08;;;;;;;1999.90;999.90;;;25.80;59.80;;;;;;5069203;28;20032;-94
2022/07/22 08:59:47;;;;;;;1999.90;999.90;;;25.70;58.50;;;;;;5070980;28;20476;-89
2022/07/22 09:02:13;;;;;;;1999.90;999.90;;;25.70;60.20;;;;;;5066596;28;20033;-93
2022/07/22 09:05:02;;;;;;;1999.90;999.90;;;25.90;56.10;;;;;;5072202;28;20530;-92
2022/07/22 09:07:35;;;;;;;1999.90;999.90;;;26.20;61.30;;;;;;5067144;28;20033;-92
2022/07/22 09:10:04;;;;;;;1999.90;999.90;;;26.50;62.10;;;;;;5074023;28;20023;-93
2022/07/22 09:12:32;;;;;;;1999.90;999.90;;;26.50;60.10;;;;;;5063388;28;20014;-91
2022/07/22 09:14:59;;;;;;;1999.90;999.90;;;26.70;55.80;;;;;;5082179;28;20660;-92
2022/07/22 09:17:35;;;;;;;1999.90;999.90;;;26.70;56.30;;;;;;5085234;28;20044;-91
2022/07/22 09:20:14;;;;;;;1999.90;999.90;;;26.60;58.30;;;;;;5088392;28;20031;-93
2022/07/22 09:22:42;;;;;;;1999.90;999.90;;;27.00;52.30;;;;;;5052880;28;20039;-92
2022/07/22 09:25:31;;;;;;;1999.90;999.90;;;27.10;56.80;;;;;;5052093;28;20035;-92
2022/07/22 09:28:11;;;;;;;1999.90;999.90;;;27.00;56.80;;;;;;5097340;28;20062;-91
2022/07/22 09:30:38;;;;;;;;;;;27.20;58.70;;;;;;5088663;28;20119;-93
2022/07/22 09:33:04;;;;;;;1999.90;999.90;;;27.30;53.60;;;;;;5099496;28;19911;-91
2022/07/22 09:35:31;;;;;;;1999.90;999.90;;;27.70;53.70;;;;;;5085217;28;20710;-90
2022/07/22 09:38:01;;;;;;;1999.90;999.90;;;27.60;55.90;;;;;;5099145;28;20114;-89
2022/07/22 09:40:37;;;;;;;1999.90;999.90;;;27.60;53.50;;;;;;5098685;28;20031;-92
2022/07/22 09:43:12;;;;;;;1999.90;999.90;;;27.80;52.40;;;;;;5094677;28;20035;-90
2022/07/22 09:45:51;;;;;;;1999.90;999.90;;;27.90;49.20;;;;;;5077933;28;20656;-90
2022/07/22 09:48:18;;;;;;;1999.90;999.90;;;27.80;50.00;;;;;;5096872;28;20556;-92
2022/07/22 09:50:44;;;;;;;1999.90;999.90;;;28.20;48.40;;;;;;5078043;28;20097;-88
2022/07/22 09:53:10;;;;;;;1999.90;999.90;;;28.20;47.50;;;;;;5090755;28;20024;-92
2022/07/22 09:55:38;;;;;;;1999.90;999.90;;;28.00;48.70;;;;;;5092666;28;20043;-89
2022/07/22 09:58:07;;;;;;;1999.90;999.90;;;27.80;47.10;;;;;;5065241;28;20027;-79
2022/07/22 10:00:33;;;;;;;1999.90;999.90;;;28.20;46.70;;;;;;5090190;28;20032;-79
2022/07/22 10:03:01;;;;;;;1999.90;999.90;;;28.20;46.30;;;;;;5089537;28;20038;-79
2022/07/22 10:05:30;;;;;;;1999.90;999.90;;;28.50;44.90;;;;;;5099586;28;20028;-79
2022/07/22 10:07:56;;;;;;;1999.90;999.90;;;28.40;45.80;;;;;;5097014;28;20055;-79
2022/07/22 10:10:27;;;;;;;1999.90;999.90;;;28.60;46.20;;;;;;5093198;28;20039;-79
2022/07/22 10:12:56;;;;;;;1999.90;999.90;;;28.90;44.40;;;;;;5089778;28;20036;-79
2022/07/22 10:15:24;;;;;;;1999.90;999.90;;;29.00;44.80;;;;;;5096539;28;20040;-79
2022/07/22 10:17:52;;;;;;;1999.90;999.90;;;29.30;40.20;;;;;;5092959;28;20066;-80
2022/07/22 10:20:28;;;;;;;1999.90;999.90;;;29.00;42.80;;;;;;5077801;28;20035;-79
2022/07/22 10:23:06;;;;;;;1999.90;999.90;;;29.60;39.00;;;;;;5085702;28;20035;-80
2022/07/22 10:25:54;;;;;;;1999.90;999.90;;;29.50;42.20;;;;;;5087399;28;20028;-85
2022/07/22 10:28:30;;;;;;;1999.90;999.90;;;29.40;42.50;;;;;;5093518;28;20107;-81
2022/07/22 10:31:17;;;;;;;1999.90;999.90;;;29.70;42.70;;;;;;5088520;28;20035;-81
2022/07/22 10:33:44;;;;;;;1999.90;999.90;;;30.00;39.00;;;;;;5094964;28;20023;-80
2022/07/22 10:36:10;;;;;;;1999.90;999.90;;;29.50;38.30;;;;;;5096647;28;20557;-81
2022/07/22 10:38:35;;;;;;;1999.90;999.90;;;29.70;37.70;;;;;;5073857;28;20059;-81
2022/07/22 10:41:07;;;;;;;1694.10;767.42;;;30.00;39.30;;;;;;5078979;28;20035;-81
2022/07/22 10:43:42;;;;;;;1999.90;999.90;;;30.20;35.60;;;;;;5097574;28;20032;-81
2022/07/22 10:46:09;;;;;;;1999.90;999.90;;;30.50;36.80;;;;;;5094810;28;20039;-82
2022/07/22 10:48:38;;;;;;;1999.90;999.90;;;30.40;38.10;;;;;;5088644;28;20032;-80
2022/07/22 10:51:08;;;;;;;1999.90;999.90;;;30.50;39.00;;;;;;5089630;28;20062;-83
2022/07/22 10:53:45;;;;;;;1999.90;999.90;;;30.20;39.40;;;;;;5088769;28;20058;-80
2022/07/22 10:56:20;;;;;;;1999.90;999.90;;;31.00;34.70;;;;;;5087508;28;20031;-80
2022/07/22 10:58:56;;;;;;;1805.10;577.90;;;30.80;37.70;;;;;;5072072;28;20020;-79
2022/07/22 11:01:26;;;;;;;1746.40;562.08;;;31.20;34.50;;;;;;5063056;28;20024;-81
2022/07/22 11:03:52;;;;;;;1999.90;999.90;;;31.70;33.00;;;;;;5087157;28;20321;-82
2022/07/22 11:06:25;;;;;;;1999.90;999.90;;;31.50;28.80;;;;;;5093976;28;20052;-79
2022/07/22 11:08:53;;;;;;;1999.90;999.90;;;31.20;29.90;;;;;;5093943;28;20035;-81
2022/07/22 11:11:38;;;;;;;1999.90;999.90;;;32.00;31.70;;;;;;5073168;28;20052;-81
2022/07/22 11:14:12;;;;;;;1690.78;428.60;;;32.80;28.40;;;;;;5089208;28;20039;-80
2022/07/22 11:16:38;;;;;;;1866.90;279.38;;;33.30;31.00;;;;;;5068391;28;20118;-80
2022/07/22 11:19:04;;;;;;;1952.25;278.17;;;33.50;31.30;;;;;;5091134;28;20040;-82
2022/07/22 11:21:31;;;;;;;1999.90;540.00;;;34.30;29.90;;;;;;5071803;28;20037;-80
2022/07/22 11:24:01;;;;;;;1999.90;584.25;;;33.70;31.10;;;;;;5070788;28;20020;-81
2022/07/22 11:26:44;;;;;;;1918.05;336.83;;;33.30;29.70;;;;;;5084724;28;20032;-81
2022/07/22 11:29:39;;;;;;;1882.03;795.30;;;33.60;27.00;;;;;;5091424;28;20032;-79
2022/07/22 11:32:07;;;;;;;1999.90;999.90;;;34.10;26.90;;;;;;5081290;28;20035;-80
2022/07/22 11:34:35;;;;;;;1803.53;778.80;;;34.20;25.40;;;;;;5092168;28;20020;-80
2022/07/22 11:37:01;;;;;;;1999.90;313.65;;;34.20;25.80;;;;;;5098445;28;20110;-80
2022/07/22 11:39:28;;;;;;;1999.90;495.25;;;34.00;28.50;;;;;;5093726;28;20520;-81
2022/07/22 11:41:56;;;;;;;1999.90;832.70;;;34.00;25.90;;;;;;5091843;28;20027;-82
2022/07/22 11:44:25;;;;;;;1897.35;820.88;;;34.70;26.50;;;;;;5095969;28;20071;-81
2022/07/22 11:46:51;;;;;;;;;;;34.50;25.50;;;;;;5084807;28;20019;-81
2022/07/22 11:49:21;;;;;;;1100.20;238.60;;;35.00;24.20;;;;;;5091806;28;19914;-79
2022/07/22 11:51:47;;;;;;;1698.30;191.55;;;34.70;25.60;;;;;;5092770;28;20654;-82
2022/07/22 11:54:14;;;;;;;1999.90;359.63;;;34.70;25.00;;;;;;5068387;28;20020;-79
2022/07/22 11:56:40;;;;;;;1999.90;328.30;;;34.20;25.90;;;;;;5087808;28;20040;-80
2022/07/22 11:59:08;;;;;;;1999.90;999.90;;;35.30;25.90;;;;;;5092055;28;20036;-81
2022/07/22 12:01:36;;;;;;;1983.22;398.42;;;35.30;22.30;;;;;;5088270;28;20166;-79